Aviation Digital Data Service (ADDS)

Output produced by METARs form (1833 UTC 02 October 2022)
found at http://www.aviationweather.gov/metar/data/
 
METAR text: KEDW 021756Z 04003KT 60SM CLR 24/07 A2998 RMK AO2A SLP133 T02370069 10237 20122 50008
Conditions at: KEDW (EDWARDS AFB , CA, US) observed 1756 UTC 02 October 2022
Temperature: 23.7°C (75°F)
Dewpoint: 6.9°C (44°F) [RH = 34%]
Pressure (altimeter): 29.98 inches Hg (1015.3 mb)
[Sea-level pressure: 1013.3 mb]
Winds: from the NE (40 degrees) at 3 MPH (3 knots; 1.5 m/s)
Visibility: 60 miles (97 km)
Ceiling: at least 12,000 feet AGL
Clouds: sky clear below 12,000 feet AGL
Weather: no significant weather observed at this time

METAR text: KEDW 021656Z 03003KT 60SM CLR 20/07 A2998 RMK AO2A SLP135 T02040074
Conditions at: KEDW (EDWARDS AFB , CA, US) observed 1656 UTC 02 October 2022
Temperature: 20.4°C (69°F)
Dewpoint: 7.4°C (45°F) [RH = 43%]
Pressure (altimeter): 29.98 inches Hg (1015.3 mb)
[Sea-level pressure: 1013.5 mb]
Winds: from the NNE (30 degrees) at 3 MPH (3 knots; 1.5 m/s)
Visibility: 60 miles (97 km)
Ceiling: at least 12,000 feet AGL
Clouds: sky clear below 12,000 feet AGL
Weather: no significant weather observed at this time

METAR text: KEDW 021556Z 04003KT 10SM CLR 19/08 A2997 RMK AO2A SLP130 T018500796
Conditions at: KEDW (EDWARDS AFB , CA, US) observed 1556 UTC 02 October 2022
Temperature: 18.5°C (65°F)
Dewpoint: 7.9°C (46°F) [RH = 50%]
Pressure (altimeter): 29.97 inches Hg (1015.0 mb)
[Sea-level pressure: 1013.0 mb]
Winds: from the NE (40 degrees) at 3 MPH (3 knots; 1.5 m/s)
Visibility: 10 or more miles (16+ km)
Ceiling: at least 12,000 feet AGL
Clouds: sky clear below 12,000 feet AGL
Weather: no significant weather observed at this time

METAR text: KEDW 021456Z 00000KT 60SM CLR 16/08 A2995 RMK AO2A SLP124 T01590079 52017
Conditions at: KEDW (EDWARDS AFB , CA, US) observed 1456 UTC 02 October 2022
Temperature: 15.9°C (61°F)
Dewpoint: 7.9°C (46°F) [RH = 59%]
Pressure (altimeter): 29.95 inches Hg (1014.3 mb)
[Sea-level pressure: 1012.4 mb]
Winds: calm
Visibility: 60 miles (97 km)
Ceiling: at least 12,000 feet AGL
Clouds: sky clear below 12,000 feet AGL
Weather: no significant weather observed at this time

METAR text: KEDW 021356Z 24006KT 60SM CLR 13/07 A2993 RMK AO2A SLP119 T01250072
Conditions at: KEDW (EDWARDS AFB , CA, US) observed 1356 UTC 02 October 2022
Temperature: 12.5°C (54°F)
Dewpoint: 7.2°C (45°F) [RH = 70%]
Pressure (altimeter): 29.93 inches Hg (1013.6 mb)
[Sea-level pressure: 1011.9 mb]
Winds: from the WSW (240 degrees) at 7 MPH (6 knots; 3.1 m/s)
Visibility: 60 miles (97 km)
Ceiling: at least 12,000 feet AGL
Clouds: sky clear below 12,000 feet AGL
Weather: no significant weather observed at this time

METAR text: KEDW 021256Z 23004KT 60SM CLR 13/07 A2991 RMK AO2A SLP111 T01280073
Conditions at: KEDW (EDWARDS AFB , CA, US) observed 1256 UTC 02 October 2022
Temperature: 12.8°C (55°F)
Dewpoint: 7.3°C (45°F) [RH = 69%]
Pressure (altimeter): 29.91 inches Hg (1013.0 mb)
[Sea-level pressure: 1011.1 mb]
Winds: from the SW (230 degrees) at 5 MPH (4 knots; 2.1 m/s)
Visibility: 60 miles (97 km)
Ceiling: at least 12,000 feet AGL
Clouds: sky clear below 12,000 feet AGL
Weather: no significant weather observed at this time

METAR text: KEDW 021056Z AUTO 20007KT 10SM CLR 17/08 A2989 RMK AO2 SLP100 T01650079
Conditions at: KEDW (EDWARDS AFB , CA, US) observed 1056 UTC 02 October 2022
Temperature: 16.5°C (62°F)
Dewpoint: 7.9°C (46°F) [RH = 57%]
Pressure (altimeter): 29.89 inches Hg (1012.3 mb)
[Sea-level pressure: 1010.0 mb]
Winds: from the SSW (200 degrees) at 8 MPH (7 knots; 3.6 m/s)
Visibility: 10 or more miles (16+ km)
Ceiling: at least 12,000 feet AGL
Clouds: sky clear below 12,000 feet AGL
Weather: automated observation with no human augmentation;
there may or may not be significant weather present at this time

METAR text: KEDW 020956Z AUTO 20008KT 10SM CLR 17/08 A2988 RMK AO2 SLP097 T01660078
Conditions at: KEDW (EDWARDS AFB , CA, US) observed 0956 UTC 02 October 2022
Temperature: 16.6°C (62°F)
Dewpoint: 7.8°C (46°F) [RH = 56%]
Pressure (altimeter): 29.88 inches Hg (1011.9 mb)
[Sea-level pressure: 1009.7 mb]
Winds: from the SSW (200 degrees) at 9 MPH (8 knots; 4.1 m/s)
Visibility: 10 or more miles (16+ km)
Ceiling: at least 12,000 feet AGL
Clouds: sky clear below 12,000 feet AGL
Weather: automated observation with no human augmentation;
there may or may not be significant weather present at this time

METAR text: KEDW 020856Z AUTO 20007KT 10SM CLR 17/08 A2988 RMK AO2 SLP097 T01730082 51003
Conditions at: KEDW (EDWARDS AFB , CA, US) observed 0856 UTC 02 October 2022
Temperature: 17.3°C (63°F)
Dewpoint: 8.2°C (47°F) [RH = 55%]
Pressure (altimeter): 29.88 inches Hg (1011.9 mb)
[Sea-level pressure: 1009.7 mb]
Winds: from the SSW (200 degrees) at 8 MPH (7 knots; 3.6 m/s)
Visibility: 10 or more miles (16+ km)
Ceiling: at least 12,000 feet AGL
Clouds: sky clear below 12,000 feet AGL
Weather: automated observation with no human augmentation;
there may or may not be significant weather present at this time

METAR text: KEDW 020756Z AUTO 21009KT 10SM CLR 19/06 A2988 RMK AO2 SLP097 T01890057 403190121
Conditions at: KEDW (EDWARDS AFB , CA, US) observed 0756 UTC 02 October 2022
Temperature: 18.9°C (66°F)
Dewpoint: 5.7°C (42°F) [RH = 42%]
Pressure (altimeter): 29.88 inches Hg (1011.9 mb)
[Sea-level pressure: 1009.7 mb]
Winds: from the SSW (210 degrees) at 10 MPH (9 knots; 4.6 m/s)
Visibility: 10 or more miles (16+ km)
Ceiling: at least 12,000 feet AGL
Clouds: sky clear below 12,000 feet AGL
Weather: automated observation with no human augmentation;
there may or may not be significant weather present at this time

METAR text: KEDW 020656Z AUTO 18007KT 10SM CLR 19/M01 A2988 RMK AO2 SLP098 T01881006
Conditions at: KEDW (EDWARDS AFB , CA, US) observed 0656 UTC 02 October 2022
Temperature: 18.8°C (66°F)
Dewpoint: -0.6°C (31°F) [RH = 27%]
Pressure (altimeter): 29.88 inches Hg (1011.9 mb)
[Sea-level pressure: 1009.8 mb]
Winds: from the S (180 degrees) at 8 MPH (7 knots; 3.6 m/s)
Visibility: 10 or more miles (16+ km)
Ceiling: at least 12,000 feet AGL
Clouds: sky clear below 12,000 feet AGL
Weather: automated observation with no human augmentation;
there may or may not be significant weather present at this time

METAR text: KEDW 020556Z AUTO 16006KT 10SM CLR 20/M01 A2987 RMK AO2 SLP096 T01961010 10315 20196 52015
Conditions at: KEDW (EDWARDS AFB , CA, US) observed 0556 UTC 02 October 2022
Temperature: 19.6°C (67°F)
Dewpoint: -1.0°C (30°F) [RH = 25%]
Pressure (altimeter): 29.87 inches Hg (1011.6 mb)
[Sea-level pressure: 1009.6 mb]
Winds: from the SSE (160 degrees) at 7 MPH (6 knots; 3.1 m/s)
Visibility: 10 or more miles (16+ km)
Ceiling: at least 12,000 feet AGL
Clouds: sky clear below 12,000 feet AGL
Weather: automated observation with no human augmentation;
there may or may not be significant weather present at this time

METAR text: KEDW 020456Z AUTO 23007KT 10SM CLR 23/M01 A2986 RMK AO2 SLP092 T02291006
Conditions at: KEDW (EDWARDS AFB , CA, US) observed 0456 UTC 02 October 2022
Temperature: 22.9°C (73°F)
Dewpoint: -0.6°C (31°F) [RH = 21%]
Pressure (altimeter): 29.86 inches Hg (1011.3 mb)
[Sea-level pressure: 1009.2 mb]
Winds: from the SW (230 degrees) at 8 MPH (7 knots; 3.6 m/s)
Visibility: 10 or more miles (16+ km)
Ceiling: at least 12,000 feet AGL
Clouds: sky clear below 12,000 feet AGL
Weather: automated observation with no human augmentation;
there may or may not be significant weather present at this time

METAR text: KEDW 020356Z AUTO 24011KT 10SM CLR 24/02 A2984 RMK AO2 SLP087 T02420017
Conditions at: KEDW (EDWARDS AFB , CA, US) observed 0356 UTC 02 October 2022
Temperature: 24.2°C (76°F)
Dewpoint: 1.7°C (35°F) [RH = 23%]
Pressure (altimeter): 29.84 inches Hg (1010.6 mb)
[Sea-level pressure: 1008.7 mb]
Winds: from the WSW (240 degrees) at 13 MPH (11 knots; 5.7 m/s)
Visibility: 10 or more miles (16+ km)
Ceiling: at least 12,000 feet AGL
Clouds: sky clear below 12,000 feet AGL
Weather: automated observation with no human augmentation;
there may or may not be significant weather present at this time

METAR text: KEDW 020256Z AUTO 26014KT 10SM CLR 25/04 A2982 RMK AO2 SLP081 T02500041 52011
Conditions at: KEDW (EDWARDS AFB , CA, US) observed 0256 UTC 02 October 2022
Temperature: 25.0°C (77°F)
Dewpoint: 4.1°C (39°F) [RH = 26%]
Pressure (altimeter): 29.82 inches Hg (1009.9 mb)
[Sea-level pressure: 1008.1 mb]
Winds: from the W (260 degrees) at 16 MPH (14 knots; 7.2 m/s)
Visibility: 10 or more miles (16+ km)
Ceiling: at least 12,000 feet AGL
Clouds: sky clear below 12,000 feet AGL
Weather: automated observation with no human augmentation;
there may or may not be significant weather present at this time

METAR text: KEDW 020156Z AUTO 25014KT 10SM CLR 26/05 A2981 RMK AO2 SLP079 T02640048
Conditions at: KEDW (EDWARDS AFB , CA, US) observed 0156 UTC 02 October 2022
Temperature: 26.4°C (80°F)
Dewpoint: 4.8°C (41°F) [RH = 25%]
Pressure (altimeter): 29.81 inches Hg (1009.6 mb)
[Sea-level pressure: 1007.9 mb]
Winds: from the WSW (250 degrees) at 16 MPH (14 knots; 7.2 m/s)
Visibility: 10 or more miles (16+ km)
Ceiling: at least 12,000 feet AGL
Clouds: sky clear below 12,000 feet AGL
Weather: automated observation with no human augmentation;
there may or may not be significant weather present at this time

METAR text: KEDW 020056Z 26014KT 50SM FEW060 29/06 A2979 RMK AO2A SLP069 T02920059
Conditions at: KEDW (EDWARDS AFB , CA, US) observed 0056 UTC 02 October 2022
Temperature: 29.2°C (85°F)
Dewpoint: 5.9°C (43°F) [RH = 23%]
Pressure (altimeter): 29.79 inches Hg (1008.9 mb)
[Sea-level pressure: 1006.9 mb]
Winds: from the W (260 degrees) at 16 MPH (14 knots; 7.2 m/s)
Visibility: 50 miles (80 km)
Ceiling: at least 12,000 feet AGL
Clouds: few clouds at 6000 feet AGL
Weather: no significant weather observed at this time

METAR text: KEDW 012356Z 25013KT 50SM FEW060 32/05 A2979 RMK AO2A SLP067 T03160051 10319 20245 57013
Conditions at: KEDW (EDWARDS AFB , CA, US) observed 2356 UTC 01 October 2022
Temperature: 31.6°C (89°F)
Dewpoint: 5.1°C (41°F) [RH = 19%]
Pressure (altimeter): 29.79 inches Hg (1008.9 mb)
[Sea-level pressure: 1006.7 mb]
Winds: from the WSW (250 degrees) at 15 MPH (13 knots; 6.7 m/s)
Visibility: 50 miles (80 km)
Ceiling: at least 12,000 feet AGL
Clouds: few clouds at 6000 feet AGL
Weather: no significant weather observed at this time

METAR text: KEDW 012256Z 19008KT 50SM CLR 32/01 A2980 RMK AO2A SLP070 T03170009
Conditions at: KEDW (EDWARDS AFB , CA, US) observed 2256 UTC 01 October 2022
Temperature: 31.7°C (89°F)
Dewpoint: 0.9°C (34°F) [RH = 14%]
Pressure (altimeter): 29.80 inches Hg (1009.2 mb)
[Sea-level pressure: 1007.0 mb]
Winds: from the S (190 degrees) at 9 MPH (8 knots; 4.1 m/s)
Visibility: 50 miles (80 km)
Ceiling: at least 12,000 feet AGL
Clouds: sky clear below 12,000 feet AGL
Weather: no significant weather observed at this time

METAR text: KEDW 012156Z 31003KT 50SM CLR 31/01 A2981 RMK AO2A SLP073 T03110014
Conditions at: KEDW (EDWARDS AFB , CA, US) observed 2156 UTC 01 October 2022
Temperature: 31.1°C (88°F)
Dewpoint: 1.4°C (35°F) [RH = 15%]
Pressure (altimeter): 29.81 inches Hg (1009.6 mb)
[Sea-level pressure: 1007.3 mb]
Winds: from the NW (310 degrees) at 3 MPH (3 knots; 1.5 m/s)
Visibility: 50 miles (80 km)
Ceiling: at least 12,000 feet AGL
Clouds: sky clear below 12,000 feet AGL
Weather: no significant weather observed at this time

METAR text: KEDW 012056Z 00000KT 50SM CLR 30/02 A2983 RMK AO2A SLP080 T03020024 57017
Conditions at: KEDW (EDWARDS AFB , CA, US) observed 2056 UTC 01 October 2022
Temperature: 30.2°C (86°F)
Dewpoint: 2.4°C (36°F) [RH = 17%]
Pressure (altimeter): 29.83 inches Hg (1010.2 mb)
[Sea-level pressure: 1008.0 mb]
Winds: calm
Visibility: 50 miles (80 km)
Ceiling: at least 12,000 feet AGL
Clouds: sky clear below 12,000 feet AGL
Weather: no significant weather observed at this time

METAR text: KEDW 011956Z 10003KT 50SM CLR 29/03 A2985 RMK AO2A SLP088 T02920032
Conditions at: KEDW (EDWARDS AFB , CA, US) observed 1956 UTC 01 October 2022
Temperature: 29.2°C (85°F)
Dewpoint: 3.2°C (38°F) [RH = 19%]
Pressure (altimeter): 29.85 inches Hg (1010.9 mb)
[Sea-level pressure: 1008.8 mb]
Winds: from the E (100 degrees) at 3 MPH (3 knots; 1.5 m/s)
Visibility: 50 miles (80 km)
Ceiling: at least 12,000 feet AGL
Clouds: sky clear below 12,000 feet AGL
Weather: no significant weather observed at this time

METAR text: KEDW 011856Z 00000KT 50SM CLR 27/05 A2987 RMK AO2A SLP096 T02700047
Conditions at: KEDW (EDWARDS AFB , CA, US) observed 1856 UTC 01 October 2022
Temperature: 27.0°C (81°F)
Dewpoint: 4.7°C (40°F) [RH = 24%]
Pressure (altimeter): 29.87 inches Hg (1011.6 mb)
[Sea-level pressure: 1009.6 mb]
Winds: calm
Visibility: 50 miles (80 km)
Ceiling: at least 12,000 feet AGL
Clouds: sky clear below 12,000 feet AGL
Weather: no significant weather observed at this time

METAR text: KEDW 011756Z 00000KT 50SM CLR 25/05 A2988 RMK AO2A SLP098 T02450053 10245 20121 50004
Conditions at: KEDW (EDWARDS AFB , CA, US) observed 1756 UTC 01 October 2022
Temperature: 24.5°C (76°F)
Dewpoint: 5.3°C (42°F) [RH = 29%]
Pressure (altimeter): 29.88 inches Hg (1011.9 mb)
[Sea-level pressure: 1009.8 mb]
Winds: calm
Visibility: 50 miles (80 km)
Ceiling: at least 12,000 feet AGL
Clouds: sky clear below 12,000 feet AGL
Weather: no significant weather observed at this time

METAR text: KEDW 011656Z 27003KT 60SM CLR 22/05 A2989 RMK AO2A SLP103 T02180052
Conditions at: KEDW (EDWARDS AFB , CA, US) observed 1656 UTC 01 October 2022
Temperature: 21.8°C (71°F)
Dewpoint: 5.2°C (41°F) [RH = 34%]
Pressure (altimeter): 29.89 inches Hg (1012.3 mb)
[Sea-level pressure: 1010.3 mb]
Winds: from the W (270 degrees) at 3 MPH (3 knots; 1.5 m/s)
Visibility: 60 miles (97 km)
Ceiling: at least 12,000 feet AGL
Clouds: sky clear below 12,000 feet AGL
Weather: no significant weather observed at this time

METAR text: KEDW 011556Z 24006KT 60SM CLR 19/04 A2988 RMK AO2A SLP100 T01870041
Conditions at: KEDW (EDWARDS AFB , CA, US) observed 1556 UTC 01 October 2022
Temperature: 18.7°C (66°F)
Dewpoint: 4.1°C (39°F) [RH = 38%]
Pressure (altimeter): 29.88 inches Hg (1011.9 mb)
[Sea-level pressure: 1010.0 mb]
Winds: from the WSW (240 degrees) at 7 MPH (6 knots; 3.1 m/s)
Visibility: 60 miles (97 km)
Ceiling: at least 12,000 feet AGL
Clouds: sky clear below 12,000 feet AGL
Weather: no significant weather observed at this time

METAR text: KEDW 011456Z 26003KT 60SM CLR 15/03 A2987 RMK AO2A SLP098 T01510029 53010
Conditions at: KEDW (EDWARDS AFB , CA, US) observed 1456 UTC 01 October 2022
Temperature: 15.1°C (59°F)
Dewpoint: 2.9°C (37°F) [RH = 44%]
Pressure (altimeter): 29.87 inches Hg (1011.6 mb)
[Sea-level pressure: 1009.8 mb]
Winds: from the W (260 degrees) at 3 MPH (3 knots; 1.5 m/s)
Visibility: 60 miles (97 km)
Ceiling: at least 12,000 feet AGL
Clouds: sky clear below 12,000 feet AGL
Weather: no significant weather observed at this time

METAR text: KEDW 011356Z 23004KT 60SM CLR 12/03 A2985 RMK AO2A SLP093 T01220026
Conditions at: KEDW (EDWARDS AFB , CA, US) observed 1356 UTC 01 October 2022
Temperature: 12.2°C (54°F)
Dewpoint: 2.6°C (37°F) [RH = 52%]
Pressure (altimeter): 29.85 inches Hg (1010.9 mb)
[Sea-level pressure: 1009.3 mb]
Winds: from the SW (230 degrees) at 5 MPH (4 knots; 2.1 m/s)
Visibility: 60 miles (97 km)
Ceiling: at least 12,000 feet AGL
Clouds: sky clear below 12,000 feet AGL
Weather: no significant weather observed at this time

METAR text: KEDW 011256Z 19007KT 60SM CLR 13/04 A2984 RMK AO2A SLP087 T01310037
Conditions at: KEDW (EDWARDS AFB , CA, US) observed 1256 UTC 01 October 2022
Temperature: 13.1°C (56°F)
Dewpoint: 3.7°C (39°F) [RH = 53%]
Pressure (altimeter): 29.84 inches Hg (1010.6 mb)
[Sea-level pressure: 1008.7 mb]
Winds: from the S (190 degrees) at 8 MPH (7 knots; 3.6 m/s)
Visibility: 60 miles (97 km)
Ceiling: at least 12,000 feet AGL
Clouds: sky clear below 12,000 feet AGL
Weather: no significant weather observed at this time

METAR text: KEDW 011156Z AUTO 24007KT 10SM CLR 14/05 A2983 RMK AO2 SLP081 T01380046 10206 20138 50001
Conditions at: KEDW (EDWARDS AFB , CA, US) observed 1156 UTC 01 October 2022
Temperature: 13.8°C (57°F)
Dewpoint: 4.6°C (40°F) [RH = 54%]
Pressure (altimeter): 29.83 inches Hg (1010.2 mb)
[Sea-level pressure: 1008.1 mb]
Winds: from the WSW (240 degrees) at 8 MPH (7 knots; 3.6 m/s)
Visibility: 10 or more miles (16+ km)
Ceiling: at least 12,000 feet AGL
Clouds: sky clear below 12,000 feet AGL
Weather: automated observation with no human augmentation;
there may or may not be significant weather present at this time

METAR text: KEDW 011056Z AUTO 23004KT 10SM CLR 15/06 A2983 RMK AO2 SLP080 T01450058
Conditions at: KEDW (EDWARDS AFB , CA, US) observed 1056 UTC 01 October 2022
Temperature: 14.5°C (58°F)
Dewpoint: 5.8°C (42°F) [RH = 56%]
Pressure (altimeter): 29.83 inches Hg (1010.2 mb)
[Sea-level pressure: 1008.0 mb]
Winds: from the SW (230 degrees) at 5 MPH (4 knots; 2.1 m/s)
Visibility: 10 or more miles (16+ km)
Ceiling: at least 12,000 feet AGL
Clouds: sky clear below 12,000 feet AGL
Weather: automated observation with no human augmentation;
there may or may not be significant weather present at this time

METAR text: KEDW 010956Z AUTO 22008KT 10SM CLR 17/07 A2983 RMK AO2 SLP078 T01670065
Conditions at: KEDW (EDWARDS AFB , CA, US) observed 0956 UTC 01 October 2022
Temperature: 16.7°C (62°F)
Dewpoint: 6.5°C (44°F) [RH = 51%]
Pressure (altimeter): 29.83 inches Hg (1010.2 mb)
[Sea-level pressure: 1007.8 mb]
Winds: from the SW (220 degrees) at 9 MPH (8 knots; 4.1 m/s)
Visibility: 10 or more miles (16+ km)
Ceiling: at least 12,000 feet AGL
Clouds: sky clear below 12,000 feet AGL
Weather: automated observation with no human augmentation;
there may or may not be significant weather present at this time

METAR text: KEDW 010856Z AUTO 21008KT 10SM CLR 18/07 A2983 RMK AO2 SLP078 T01840072 53001
Conditions at: KEDW (EDWARDS AFB , CA, US) observed 0856 UTC 01 October 2022
Temperature: 18.4°C (65°F)
Dewpoint: 7.2°C (45°F) [RH = 48%]
Pressure (altimeter): 29.83 inches Hg (1010.2 mb)
[Sea-level pressure: 1007.8 mb]
Winds: from the SSW (210 degrees) at 9 MPH (8 knots; 4.1 m/s)
Visibility: 10 or more miles (16+ km)
Ceiling: at least 12,000 feet AGL
Clouds: sky clear below 12,000 feet AGL
Weather: automated observation with no human augmentation;
there may or may not be significant weather present at this time

METAR text: KEDW 010756Z AUTO 20010KT 10SM CLR 18/06 A2983 RMK AO2 SLP078 T01790061 403360123
Conditions at: KEDW (EDWARDS AFB , CA, US) observed 0756 UTC 01 October 2022
Temperature: 17.9°C (64°F)
Dewpoint: 6.1°C (43°F) [RH = 46%]
Pressure (altimeter): 29.83 inches Hg (1010.2 mb)
[Sea-level pressure: 1007.8 mb]
Winds: from the SSW (200 degrees) at 12 MPH (10 knots; 5.1 m/s)
Visibility: 10 or more miles (16+ km)
Ceiling: at least 12,000 feet AGL
Clouds: sky clear below 12,000 feet AGL
Weather: automated observation with no human augmentation;
there may or may not be significant weather present at this time

METAR text: KEDW 010656Z AUTO 19008KT 10SM CLR 17/07 A2983 RMK AO2 SLP081 T01740074
Conditions at: KEDW (EDWARDS AFB , CA, US) observed 0656 UTC 01 October 2022
Temperature: 17.4°C (63°F)
Dewpoint: 7.4°C (45°F) [RH = 52%]
Pressure (altimeter): 29.83 inches Hg (1010.2 mb)
[Sea-level pressure: 1008.1 mb]
Winds: from the S (190 degrees) at 9 MPH (8 knots; 4.1 m/s)
Visibility: 10 or more miles (16+ km)
Ceiling: at least 12,000 feet AGL
Clouds: sky clear below 12,000 feet AGL
Weather: automated observation with no human augmentation;
there may or may not be significant weather present at this time